ソルトレイクシティ の空港の天気 - METARとTAF

ソルト・レーク・シティ国際空港 ( KSLC / SLC ) - アメリカ ユタ州ソルトレイクシティ
飛行場実況気象(Metar)
観測時間08/04 15:54 MDT (08/04 21:54 UTC)
風向・風速北北西 5m/s
視程10km以上
天気現象
少しの雲 雲底高度 3050m
気温34.4℃
湿度15%
気圧1009.9hPa
METARKSLC 042154Z 33010KT 10SM FEW100 34/04 A3002 RMK AO2 SLP099 TCU DSNT E AND SE AND SW T03440039
過去の天気等 Google飛行場航空写真 Wunderground天気予報

過去48時間のMETAR

飛行場予報(TAF)
発表時間: 8/04 14:55 MDT (8/04 20:55 UTC)
予報対象時間: 4日15時 MDT ~ 5日18時 MDT
風向・風速北北西 5m/s
視程10km以上
少しの雲 雲底高度 3050m
4日23時 MDT から
風向・風速南南東 3m/s
視程10km以上
少しの雲 雲底高度 4570m
5日12時 MDT から
風向・風速西南西 4m/s
視程10km以上
全天の4割程度の雲 雲底高度 4570m
KSLC 042055Z 0421/0524 34009KT P6SM FEW100
FM050500 15005KT P6SM FEW150
FM051800 24008KT P6SM SCT150